Data for 05/10/2013

Time Sea-Level Adjusted Pressure Absolute Pressure Temperature Relative Humidity Dew Point   
(mb) (inHg) (mb) (inHg) (C) (F) (%) (C) (F)
00:05 1023 30.21 853 25.19 9 48.1 59 1.4 34.4
00:10 1023 30.21 853 25.19 9.1 48.4 58 1.4 34.5
00:15 1023 30.21 853 25.19 9.2 48.6 58 1.3 34.3
00:20 1023 30.21 853 25.19 9.5 49 56 1.1 33.9
00:25 1023 30.21 853 25.19 9.5 49.1 56 1.2 34.2
00:30 1023 30.21 853 25.19 9.2 48.6 57 1.1 34.1
00:35 1023 30.21 853 25.19 9.2 48.6 56 0.9 33.6
00:40 1023 30.21 853 25.19 9.3 48.8 56 1 33.9
00:45 1023 30.21 853 25.19 9.3 48.8 57 1.3 34.3
00:50 1024 30.24 853 25.19 8.9 48.1 59 1.4 34.5
00:55 1024 30.24 853 25.19 8.6 47.5 60 1.2 34.2
01:00 1024 30.24 853 25.19 8.7 47.6 59 1 33.8
01:05 1023 30.21 853 25.19 8.8 47.9 57 0.9 33.7
01:10 1023 30.21 853 25.19 9 48.2 57 0.9 33.6
01:15 1024 30.24 853 25.19 9.2 48.5 56 0.8 33.5
01:20 1024 30.24 853 25.19 9.3 48.7 56 1 33.9
01:25 1024 30.24 853 25.19 9.2 48.6 56 0.9 33.5
01:30 1024 30.24 853 25.19 9.4 48.8 56 1 33.9
01:35 1024 30.24 853 25.19 9.3 48.8 56 1.1 34
01:40 1024 30.24 853 25.19 9.2 48.6 57 1.2 34.1
01:45 1024 30.24 853 25.19 9.1 48.3 57 1 33.8
01:50 1024 30.24 853 25.19 9.2 48.5 57 1 33.8
01:55 1024 30.24 853 25.19 9.2 48.6 56 1 33.8
02:00 1024 30.24 853 25.19 9.3 48.7 56 0.9 33.7
02:05 1024 30.24 853 25.19 9.4 49 55 1 33.8
02:10 1024 30.24 853 25.19 9.5 49.1 55 1 33.8
02:15 1024 30.24 853 25.19 9.8 49.6 54 0.9 33.7
02:20 1024 30.24 853 25.19 9.8 49.6 54 1 33.8
02:25 1024 30.24 853 25.19 9.7 49.5 55 1.1 34
02:30 1024 30.24 853 25.19 9.4 48.9 57 1.4 34.4
02:35 1024 30.24 853 25.19 9.1 48.4 58 1.4 34.5
02:40 1024 30.24 853 25.19 8.8 47.9 60 1.5 34.7
02:45 1024 30.24 853 25.19 8.8 47.8 60 1.4 34.5
02:50 1024 30.24 853 25.19 9.1 48.3 59 1.4 34.5
02:55 1024 30.24 853 25.19 9.3 48.8 57 1.4 34.5
03:00 1024 30.24 853 25.19 9 48.1 61 1.9 35.5
03:05 1024 30.24 853 25.19 8.6 47.5 61 1.5 34.8
03:10 1024 30.24 853 25.19 9 48.3 59 1.4 34.6
03:15 1024 30.24 854 25.22 9.3 48.8 58 1.5 34.6
03:20 1024 30.24 853 25.19 9.4 48.9 56 1.1 33.9
03:25 1024 30.24 854 25.22 9.6 49.4 56 1.3 34.4
03:30 1024 30.24 854 25.22 9.4 49 57 1.3 34.3
03:35 1024 30.24 854 25.22 9.2 48.6 56 1 33.9
03:40 1024 30.24 853 25.19 9.3 48.8 55 0.8 33.5
03:45 1024 30.24 853 25.19 9.2 48.6 58 1.5 34.8
03:50 1024 30.24 853 25.19 8.9 48.1 59 1.4 34.6
03:55 1024 30.24 853 25.19 8.9 48 59 1.3 34.3
04:00 1024 30.24 853 25.19 9 48.2 58 1.2 34.2
04:05 1024 30.24 853 25.19 9.1 48.4 57 1.1 34
04:10 1024 30.24 853 25.19 9.1 48.5 57 1.2 34.1
04:15 1024 30.24 853 25.19 8.9 48 58 1.2 34.1
04:20 1024 30.24 853 25.19 8.5 47.3 60 1.3 34.4
04:25 1024 30.24 853 25.19 7.8 46.1 63 1.2 34.2
04:30 1024 30.24 853 25.19 7.5 45.5 64 1.1 34
04:35 1024 30.24 854 25.22 7.4 45.4 62 0.7 33.3
04:40 1024 30.24 854 25.22 7.5 45.6 64 1.2 34.2
04:45 1024 30.24 854 25.22 7.3 45.2 64 0.9 33.7
04:50 1024 30.24 854 25.22 7.3 45.2 64 1 33.9
04:55 1024 30.24 854 25.22 7.4 45.2 64 1 33.7
05:00 1025 30.27 854 25.22 7.4 45.3 64 0.9 33.7
05:05 1025 30.27 854 25.22 7.5 45.5 62 0.7 33.3
05:10 1025 30.27 854 25.22 7.7 45.9 61 0.7 33.3
05:15 1025 30.27 854 25.22 8 46.4 59 0.6 33.1
05:20 1025 30.27 854 25.22 8.3 47 58 0.5 32.9
05:25 1025 30.27 854 25.22 8.6 47.5 57 0.5 32.9
05:30 1025 30.27 854 25.22 8.7 47.6 56 0.5 33
05:35 1025 30.27 854 25.22 8.5 47.4 57 0.6 33
05:40 1025 30.27 854 25.22 8.6 47.4 57 0.6 33.1
05:45 1025 30.27 854 25.22 8.6 47.5 57 0.6 33.1
05:50 1025 30.27 854 25.22 8.8 47.9 56 0.6 33
05:55 1025 30.27 854 25.22 8.8 47.8 56 0.5 32.9
06:00 1025 30.27 854 25.22 8.7 47.7 56 0.4 32.8
06:05 1025 30.27 854 25.22 8.9 48 56 0.5 33
06:10 1025 30.27 854 25.22 9.2 48.5 54 0.3 32.6
06:15 1025 30.27 854 25.22 9.4 48.9 54 0.7 33.3
06:20 1025 30.27 854 25.22 9.7 49.4 54 1 33.8
06:25 1025 30.27 854 25.22 10 50 53 0.9 33.6
06:30 1025 30.27 854 25.22 10.2 50.3 53 1 33.8
06:35 1025 30.27 854 25.22 10.6 51.2 51 1 33.7
06:40 1025 30.27 854 25.22 10.6 51 52 1.1 33.9
06:45 1025 30.27 855 25.25 10.4 50.7 53 1.3 34.3
06:50 1025 30.27 855 25.25 10.6 51.1 53 1.6 34.8
06:55 1025 30.27 855 25.25 10.9 51.5 51 1.2 34.2
07:00 1025 30.27 855 25.25 11.2 52.1 50 1.3 34.4
07:05 1025 30.27 855 25.25 11.2 52.2 51 1.6 34.9
07:10 1025 30.27 855 25.25 11.4 52.5 51 1.7 35
07:15 1025 30.27 855 25.25 12 53.6 50 1.9 35.4
07:20 1025 30.27 855 25.25 12.1 53.8 50 2.1 35.8
07:25 1025 30.27 855 25.25 12.7 54.9 47 1.8 35.3
07:30 1025 30.27 855 25.25 13.5 56.3 45 2 35.5
07:35 1025 30.27 855 25.25 13.9 57.1 43 1.5 34.6
07:40 1025 30.27 855 25.25 14.8 58.6 40 1.6 34.8
07:45 1026 30.3 855 25.25 15.1 59.1 40 1.6 34.9
07:50 1026 30.3 855 25.25 15.4 59.8 38 1.4 34.6
07:55 1026 30.3 855 25.25 15.8 60.4 37 1.1 34
08:00 1026 30.3 855 25.25 15.5 60 38 1.5 34.7
08:05 1026 30.3 855 25.25 15.5 59.9 38 1.2 34.2
08:10 1026 30.3 855 25.25 16.1 61 37 1.6 34.9
08:15 1026 30.3 855 25.25 15.8 60.4 40 2.1 35.8
08:20 1026 30.3 856 25.28 15.2 59.4 41 2.1 35.7
08:25 1026 30.3 856 25.28 15.2 59.4 40 1.7 35.1
08:30 1027 30.33 856 25.28 15.4 59.7 41 2.4 36.3
08:35 1027 30.33 856 25.28 15.3 59.5 42 2.5 36.4
08:40 1027 30.33 856 25.28 15.3 59.6 41 2.2 35.9
08:45 1027 30.33 856 25.28 15.2 59.3 43 2.8 37.1
08:50 1027 30.33 856 25.28 14.8 58.6 45 2.9 37.3
08:55 1027 30.33 856 25.28 15.1 59.2 41 2.1 35.9
09:00 1027 30.33 856 25.28 15.3 59.5 41 2.1 35.7
09:05 1027 30.33 856 25.28 15.9 60.6 38 1.5 34.7
09:10 1027 30.33 856 25.28 16.7 62 35 1.3 34.3
09:15 1027 30.33 856 25.28 16.4 61.6 38 2.2 35.9
09:20 1027 30.33 856 25.28 16.5 61.8 36 1.7 35
09:25 1027 30.33 856 25.28 16.9 62.5 36 2 35.5
09:30 1027 30.33 856 25.28 17.7 63.8 34 1.7 35.1
09:35 1027 30.33 856 25.28 18.3 65 33 2 35.5
09:40 1027 30.33 856 25.28 18.5 65.2 33 2.1 35.7
09:45 1027 30.33 856 25.28 18.1 64.6 35 2.5 36.4
09:50 1027 30.33 856 25.28 17.7 63.9 35 2.3 36.1
09:55 1027 30.33 856 25.28 18 64.4 33 1.6 34.8
10:00 1027 30.33 856 25.28 18.2 64.7 32 1.2 34.2
10:05 1027 30.33 856 25.28 18.6 65.6 31 1.5 34.7
10:10 1027 30.33 856 25.28 18.4 65.1 32 1.6 34.9
10:15 1027 30.33 856 25.28 17.6 63.7 33 1.2 34.2
10:20 1027 30.33 856 25.28 17.5 63.6 32 1 33.8
10:25 1027 30.33 856 25.28 18.2 64.8 31 1.1 34
10:30 1027 30.33 856 25.28 17.4 63.3 32 0.8 33.4
10:35 1027 30.33 856 25.28 17.9 64.3 31 0.6 33.1
10:40 1027 30.33 856 25.28 17.7 63.8 32 1 33.8
10:45 1027 30.33 856 25.28 17.7 63.9 32 1 33.7
10:50 1027 30.33 856 25.28 18.6 65.5 32 1.9 35.3
10:55 1027 30.33 856 25.28 18.8 65.9 31 1.7 35
11:00 1027 30.33 856 25.28 19.1 66.4 31 1.8 35.3
11:05 1027 30.33 856 25.28 19.1 66.5 31 1.5 34.8
11:10 1027 30.33 856 25.28 18.9 66.1 30 1.3 34.3
11:15 1027 30.33 856 25.28 18.7 65.7 31 1.2 34.1
11:20 1027 30.33 856 25.28 19 66.1 31 1.7 35.1
11:25 1027 30.33 856 25.28 19.3 66.7 31 2 35.7
11:30 1027 30.33 856 25.28 19.2 66.6 32 2.1 35.8
11:35 1027 30.33 856 25.28 18.7 65.7 33 2.3 36.1
11:40 1027 30.33 856 25.28 18.5 65.3 31 1.2 34.2
11:45 1027 30.33 856 25.28 19.2 66.5 31 1.8 35.2
11:50 1027 30.33 856 25.28 18.8 65.9 31 1.7 35
11:55 1027 30.33 856 25.28 18.9 66 31 1.4 34.6
12:00 1027 30.33 856 25.28 19.3 66.8 30 1.5 34.7
12:05 1027 30.33 856 25.28 19.4 66.9 30 1.6 35
12:10 1027 30.33 856 25.28 19.5 67.2 30 1.7 35.1
12:15 1027 30.33 856 25.28 19.4 67 31 1.9 35.3
12:20 1027 30.33 857 25.31 19.6 67.2 29 1.2 34.2
12:25 1027 30.33 857 25.31 19.7 67.5 29 1.4 34.5
12:30 1027 30.33 857 25.31 19.7 67.5 28 1.1 34
12:35 1027 30.33 857 25.31 19.8 67.6 29 1.4 34.4
12:40 1027 30.33 856 25.28 19.9 67.8 28 1 33.7
12:45 1027 30.33 856 25.28 20 68 28 1.2 34.1
12:50 1027 30.33 856 25.28 20.4 68.7 27 0.9 33.5
12:55 1027 30.33 856 25.28 19.8 67.6 27 0.4 32.7
13:00 1027 30.33 856 25.28 20.1 68.2 28 1 33.9
13:05 1027 30.33 856 25.28 20.2 68.4 27 1 33.8
13:10 1027 30.33 856 25.28 20.3 68.6 26 0.5 32.9
13:15 1027 30.33 856 25.28 19.9 67.8 28 0.9 33.6
13:20 1027 30.33 856 25.28 19.8 67.6 26 0 32.1
13:25 1027 30.33 856 25.28 20.3 68.5 26 0.1 32.2
13:30 1027 30.33 856 25.28 20.4 68.8 26 0.3 32.5
13:35 1027 30.33 856 25.28 20.2 68.3 25 -0.1 31.8
13:40 1027 30.33 856 25.28 19.9 67.9 25 -0.6 30.9
13:45 1027 30.33 856 25.28 19.9 67.8 24 -1.1 30.1
13:50 1027 30.33 856 25.28 20.4 68.7 23 -1.5 29.3
13:55 1027 30.33 856 25.28 20.9 69.6 23 -0.6 31
14:00 1027 30.33 856 25.28 20.9 69.6 23 -0.7 30.8
14:05 1027 30.33 856 25.28 20.8 69.4 23 -1.1 30
14:10 1027 30.33 856 25.28 21.1 70 22 -1.4 29.6
14:15 1027 30.33 856 25.28 21.5 70.6 22 -0.9 30.3
14:20 1027 30.33 856 25.28 21.9 71.4 21 -1 30.2
14:25 1027 30.33 856 25.28 21.6 70.8 23 -0.4 31.2
14:30 1027 30.33 856 25.28 20.8 69.5 23 -0.8 30.6
14:35 1027 30.33 856 25.28 21.5 70.7 22 -0.8 30.6
14:40 1026 30.3 856 25.28 21.4 70.5 23 -0.5 31
14:45 1026 30.3 856 25.28 21.2 70.2 23 -0.6 31
14:50 1026 30.3 856 25.28 21.3 70.3 23 -0.6 30.9
14:55 1026 30.3 856 25.28 20.8 69.5 23 -0.9 30.4
15:00 1026 30.3 855 25.25 20.5 68.9 24 -0.8 30.5
15:05 1026 30.3 855 25.25 21.2 70.1 23 -0.7 30.8
15:10 1026 30.3 855 25.25 21.6 70.9 22 -0.7 30.8
15:15 1026 30.3 855 25.25 21.7 71 21 -1.6 29.1
15:20 1026 30.3 855 25.25 21.8 71.3 19 -2.3 27.8
15:25 1026 30.3 855 25.25 22 71.6 20 -1.6 29.2
15:30 1026 30.3 855 25.25 21.2 70.1 20 -2.2 28
15:35 1026 30.3 855 25.25 20.9 69.6 22 -1.6 29.1
15:40 1026 30.3 855 25.25 20.9 69.5 22 -1.6 29
15:45 1026 30.3 855 25.25 21.5 70.7 21 -1.6 29.2
15:50 1026 30.3 855 25.25 21.9 71.4 20 -2.1 28.3
15:55 1026 30.3 855 25.25 22.3 72.1 20 -1.8 28.8
16:00 1026 30.3 855 25.25 22.4 72.3 19 -2 28.3
16:05 1026 30.3 855 25.25 22 71.5 20 -1.6 29.1
16:10 1026 30.3 855 25.25 22 71.7 20 -1.9 28.6
16:15 1026 30.3 855 25.25 21.9 71.3 19 -2.4 27.6
16:20 1026 30.3 855 25.25 21 69.8 19 -3.1 26.3
16:25 1026 30.3 855 25.25 21.3 70.3 19 -3.3 26.1
16:30 1026 30.3 855 25.25 21.4 70.5 19 -3.2 26.2
16:35 1026 30.3 855 25.25 21.4 70.6 18 -3.4 25.9
16:40 1026 30.3 855 25.25 21.8 71.3 17 -4.1 24.6
16:45 1026 30.3 855 25.25 22.1 71.8 18 -3.3 26
16:50 1026 30.3 855 25.25 22.1 71.7 18 -3 26.5
16:55 1026 30.3 855 25.25 21.9 71.4 18 -3.4 25.9
17:00 1026 30.3 855 25.25 21.6 70.8 19 -2.9 26.8
17:05 1026 30.3 855 25.25 21.4 70.5 19 -3.1 26.3
17:10 1026 30.3 855 25.25 21.2 70.2 19 -3.2 26.3
17:15 1026 30.3 855 25.25 21.2 70.1 19 -3.4 25.9
17:20 1026 30.3 855 25.25 21.5 70.6 19 -2.9 26.8
17:25 1026 30.3 855 25.25 21.4 70.4 20 -2.7 27.2
17:30 1026 30.3 855 25.25 21 69.7 19 -3.3 26
17:35 1026 30.3 855 25.25 21.1 70 19 -3.1 26.4
17:40 1026 30.3 855 25.25 21.1 70 19 -3.4 25.9
17:45 1026 30.3 855 25.25 21.1 69.9 19 -2.9 26.7
17:50 1026 30.3 855 25.25 21.3 70.4 19 -2.7 27.1
17:55 1026 30.3 855 25.25 21.2 70.2 20 -2.5 27.4
18:00 1026 30.3 855 25.25 20.8 69.4 20 -2.8 27
18:05 1026 30.3 855 25.25 20.4 68.7 20 -3.3 26.1
18:10 1026 30.3 855 25.25 19.9 67.9 21 -3 26.5
18:15 1026 30.3 855 25.25 19.8 67.6 21 -2.9 26.8
18:20 1026 30.3 855 25.25 19.6 67.2 21 -3.1 26.4
18:25 1026 30.3 855 25.25 19.7 67.4 21 -3.3 26
18:30 1026 30.3 855 25.25 19.6 67.2 29 1.2 34.1
18:35 1026 30.3 855 25.25 19.1 66.4 29 1 33.9
18:40 1026 30.3 855 25.25 18.9 66 30 0.9 33.7
18:45 1026 30.3 855 25.25 18.6 65.6 30 0.9 33.6
18:50 1026 30.3 855 25.25 18.5 65.4 30 0.8 33.5
18:55 1026 30.3 855 25.25 18.3 64.9 31 0.8 33.5
19:00 1026 30.3 855 25.25 17.9 64.2 31 0.8 33.4
19:05 1026 30.3 855 25.25 17.7 63.8 31 0.5 32.9
19:10 1026 30.3 855 25.25 17.5 63.5 31 0.5 33
19:15 1026 30.3 855 25.25 17.4 63.3 32 0.5 33
19:20 1026 30.3 855 25.25 17.3 63.1 32 0.3 32.6
19:25 1026 30.3 855 25.25 17 62.6 32 0.3 32.6
19:30 1026 30.3 855 25.25 16.8 62.2 33 0.5 32.8
19:35 1026 30.3 855 25.25 16.6 61.8 33 0.5 32.9
19:40 1026 30.3 855 25.25 16.4 61.5 34 0.6 33.1
19:45 1026 30.3 855 25.25 16.2 61.2 34 0.6 33
19:50 1026 30.3 856 25.28 16.1 61 34 0.5 33
19:55 1026 30.3 856 25.28 16 60.8 35 0.6 33.1
20:00 1026 30.3 856 25.28 15.8 60.5 35 0.6 33
20:05 1026 30.3 856 25.28 15.7 60.2 36 0.6 33.1
20:10 1027 30.33 856 25.28 15.5 59.9 36 0.4 32.7
20:15 1027 30.33 856 25.28 15.5 59.8 36 0.4 32.7
20:20 1027 30.33 856 25.28 15.3 59.6 36 0.3 32.5
20:25 1027 30.33 856 25.28 15.2 59.3 36 0.3 32.5
20:30 1027 30.33 856 25.28 15 59 36 0.3 32.5
20:35 1027 30.33 856 25.28 14.9 58.8 36 0.2 32.4
20:40 1027 30.33 856 25.28 14.8 58.6 36 0.1 32.2
20:45 1027 30.33 856 25.28 14.7 58.4 36 -0.2 31.6
20:50 1027 30.33 856 25.28 14.7 58.4 35 -0.4 31.2
20:55 1027 30.33 856 25.28 14.6 58.3 36 -0.3 31.4
21:00 1027 30.33 856 25.28 14.5 58.1 36 -0.4 31.3
21:05 1027 30.33 856 25.28 14.3 57.8 36 -0.4 31.3
21:10 1027 30.33 856 25.28 14.2 57.6 36 -0.5 31.2
21:15 1027 30.33 857 25.31 14.1 57.4 37 -0.5 31.2
21:20 1027 30.33 857 25.31 14 57.3 37 -0.4 31.2
21:25 1028 30.36 857 25.31 13.9 57.1 37 -0.4 31.4
21:30 1028 30.36 857 25.31 13.8 56.9 37 -0.4 31.2
21:35 1028 30.36 857 25.31 13.8 56.8 38 -0.3 31.4
21:40 1028 30.36 857 25.31 13.7 56.6 38 -0.4 31.3
21:45 1028 30.36 857 25.31 13.5 56.3 38 -0.4 31.2
21:50 1028 30.36 857 25.31 13.4 56.1 38 -0.6 30.9
21:55 1028 30.36 857 25.31 13.3 55.9 38 -0.7 30.8
22:00 1028 30.36 857 25.31 13.1 55.6 38 -0.8 30.6
22:05 1028 30.36 857 25.31 13.1 55.5 38 -1 30.2
22:10 1028 30.36 857 25.31 12.9 55.2 38 -0.9 30.5
22:15 1028 30.36 857 25.31 12.7 54.8 39 -0.9 30.3
22:20 1028 30.36 857 25.31 12.6 54.6 39 -1.1 30
22:25 1028 30.36 857 25.31 12.4 54.4 39 -1 30.2
22:30 1028 30.36 857 25.31 12.3 54.2 39 -1.2 29.9
22:35 1028 30.36 857 25.31 12.2 53.9 39 -1.4 29.5
22:40 1028 30.36 857 25.31 12.1 53.7 39 -1.3 29.7
22:45 1028 30.36 857 25.31 11.9 53.4 39 -1.6 29.1
22:50 1028 30.36 857 25.31 11.7 53.1 40 -1.5 29.3
22:55 1028 30.36 857 25.31 11.5 52.7 40 -1.7 28.9
23:00 1028 30.36 857 25.31 11.4 52.4 40 -1.8 28.8
23:05 1028 30.36 857 25.31 11.2 52.1 40 -1.9 28.5
23:10 1028 30.36 857 25.31 11 51.7 40 -2.1 28.3
23:15 1028 30.36 857 25.31 10.9 51.6 39 -2.4 27.6
23:20 1028 30.36 857 25.31 11 51.8 38 -2.8 26.9
23:25 1028 30.36 857 25.31 11 51.8 38 -2.9 26.9
23:30 1028 30.36 857 25.31 11 51.8 38 -2.9 26.8
23:35 1028 30.36 857 25.31 10.9 51.5 38 -2.9 26.8
23:40 1028 30.36 857 25.31 10.8 51.5 38 -3.1 26.5
23:45 1028 30.36 857 25.31 10.8 51.4 38 -3.1 26.4
23:50 1028 30.36 857 25.31 10.7 51.3 37 -3.2 26.3
23:55 1028 30.36 857 25.31 10.6 51.1 38 -3.1 26.4
24:00 1028 30.36 857 25.31 10.5 50.9 38 -3.1 26.4